createdAt,value
2022-10-07T00:00:50.280Z,12.06
2022-10-07T00:03:17.872Z,12.04
2022-10-07T00:05:44.501Z,12.02
2022-10-07T00:08:11.519Z,12.01
2022-10-07T00:10:42.758Z,11.97
2022-10-07T00:13:10.599Z,11.96
2022-10-07T00:15:37.255Z,11.93
2022-10-07T00:18:04.192Z,11.88
2022-10-07T00:20:30.784Z,11.92
2022-10-07T00:22:57.484Z,11.91
2022-10-07T00:25:24.389Z,11.91
2022-10-07T00:27:50.996Z,11.89
2022-10-07T00:30:18.086Z,11.91
2022-10-07T00:32:44.894Z,11.91
2022-10-07T00:35:11.539Z,11.93
2022-10-07T00:37:43.185Z,11.89
2022-10-07T00:40:13.084Z,11.88
2022-10-07T00:42:43.493Z,11.88
2022-10-07T00:45:15.986Z,11.85
2022-10-07T00:47:48.483Z,11.79
2022-10-07T00:50:25.867Z,11.78
2022-10-07T00:52:57.416Z,11.79
2022-10-07T00:55:27.141Z,11.81
2022-10-07T00:57:57.269Z,11.83
2022-10-07T01:00:24.218Z,11.87
2022-10-07T01:02:51.908Z,11.85
2022-10-07T01:05:19.591Z,11.87
2022-10-07T01:07:48.507Z,11.90
2022-10-07T01:10:19.992Z,11.94
2022-10-07T01:12:58.774Z,11.97
2022-10-07T01:15:34.500Z,12.02
2022-10-07T01:18:22.841Z,12.07
2022-10-07T01:21:07.310Z,12.09
2022-10-07T01:23:53.069Z,12.12
2022-10-07T01:26:34.775Z,12.19
2022-10-07T01:29:05.437Z,12.25
2022-10-07T01:31:37.875Z,12.15
2022-10-07T01:34:06.922Z,12.32
2022-10-07T01:36:37.008Z,12.34
2022-10-07T01:39:10.119Z,12.38
2022-10-07T01:41:38.929Z,12.41
2022-10-07T01:44:07.308Z,12.43
2022-10-07T01:46:37.749Z,12.44
2022-10-07T01:49:06.191Z,12.47
2022-10-07T01:51:37.125Z,12.54
2022-10-07T01:54:13.187Z,12.55
2022-10-07T01:57:13.875Z,12.58
2022-10-07T01:59:55.565Z,12.60
2022-10-07T02:02:44.087Z,12.63
2022-10-07T02:05:32.098Z,12.63
2022-10-07T02:08:13.620Z,12.66
2022-10-07T02:11:15.821Z,12.67
2022-10-07T02:14:00.974Z,12.70
2022-10-07T02:16:37.869Z,12.71
2022-10-07T02:19:11.023Z,12.70
2022-10-07T02:21:40.380Z,12.78
2022-10-07T02:24:10.633Z,12.80
2022-10-07T02:26:40.189Z,12.83
2022-10-07T02:29:10.630Z,12.87
2022-10-07T02:31:41.414Z,12.89
2022-10-07T02:34:17.503Z,12.91
2022-10-07T02:36:54.794Z,12.92
2022-10-07T02:39:21.679Z,12.94
2022-10-07T02:42:13.915Z,12.96
2022-10-07T02:45:02.209Z,12.99
2022-10-07T02:47:36.387Z,12.89
2022-10-07T02:50:09.094Z,13.05
2022-10-07T02:52:35.915Z,13.05
2022-10-07T02:55:09.715Z,13.06
2022-10-07T02:57:47.410Z,13.05
2022-10-07T03:00:15.694Z,13.07
2022-10-07T03:03:02.678Z,13.09
2022-10-07T03:05:49.331Z,13.11
2022-10-07T03:08:16.503Z,13.10
2022-10-07T03:10:43.862Z,13.12
2022-10-07T03:13:13.241Z,13.14
2022-10-07T03:15:43.311Z,13.15
2022-10-07T03:18:28.688Z,13.17
2022-10-07T03:21:04.639Z,13.19
2022-10-07T03:23:31.282Z,13.18
2022-10-07T03:25:59.322Z,13.20
2022-10-07T03:28:28.362Z,13.21
2022-10-07T03:31:03.331Z,13.23
2022-10-07T03:33:30.175Z,13.21
2022-10-07T03:35:56.828Z,13.25
2022-10-07T03:38:23.354Z,13.27
2022-10-07T03:40:49.935Z,13.27
2022-10-07T03:43:16.568Z,13.27
2022-10-07T03:45:44.840Z,13.28
2022-10-07T03:48:12.327Z,13.29
2022-10-07T03:50:39.688Z,13.24
2022-10-07T03:53:06.277Z,13.26
2022-10-07T03:55:32.975Z,13.25
2022-10-07T03:57:59.973Z,13.25
2022-10-07T04:00:28.779Z,13.23
2022-10-07T04:02:57.144Z,13.23
2022-10-07T04:05:24.302Z,13.24
2022-10-07T04:07:52.231Z,13.24
2022-10-07T04:10:20.526Z,13.23
2022-10-07T04:12:49.543Z,13.22
2022-10-07T04:15:16.305Z,13.24
2022-10-07T04:17:48.102Z,13.26
2022-10-07T04:20:17.550Z,13.25
2022-10-07T04:22:44.175Z,13.25
2022-10-07T04:25:30.673Z,13.23
2022-10-07T04:28:01.282Z,13.23
2022-10-07T04:30:39.539Z,13.24
2022-10-07T04:33:07.677Z,13.23
2022-10-07T04:35:38.732Z,13.19
2022-10-07T04:38:09.173Z,13.24
2022-10-07T04:40:43.054Z,13.25
2022-10-07T04:43:23.425Z,13.25
2022-10-07T04:46:05.733Z,13.24
2022-10-07T04:48:34.936Z,13.25
2022-10-07T04:51:03.978Z,13.15
2022-10-07T04:53:31.794Z,13.25
2022-10-07T04:55:59.765Z,13.24
2022-10-07T04:58:28.885Z,13.25
2022-10-07T05:00:57.702Z,13.26
2022-10-07T05:03:28.566Z,13.12
2022-10-07T05:06:05.197Z,13.30
2022-10-07T05:08:32.991Z,13.21
2022-10-07T05:11:01.875Z,13.30
2022-10-07T05:13:34.256Z,13.31
2022-10-07T05:16:03.325Z,13.32
2022-10-07T05:18:31.399Z,13.33
2022-10-07T05:21:07.150Z,13.34
2022-10-07T05:23:37.043Z,13.31
2022-10-07T05:26:09.672Z,13.35
2022-10-07T05:28:40.108Z,13.35
2022-10-07T05:31:12.544Z,13.36
2022-10-07T05:33:40.730Z,13.37
2022-10-07T05:36:08.772Z,13.38
2022-10-07T05:38:37.256Z,13.35
2022-10-07T05:41:07.291Z,13.42
2022-10-07T05:43:40.408Z,13.43
2022-10-07T05:46:14.774Z,13.44
2022-10-07T05:48:47.165Z,13.46
2022-10-07T05:51:14.363Z,13.48
2022-10-07T05:53:41.595Z,13.49
2022-10-07T05:56:11.231Z,13.54
2022-10-07T05:58:38.950Z,13.42
2022-10-07T06:01:14.186Z,13.57
2022-10-07T06:03:43.004Z,13.59
2022-10-07T06:06:10.489Z,13.62
2022-10-07T06:08:37.326Z,13.63
2022-10-07T06:11:24.581Z,13.67
2022-10-07T06:13:53.403Z,13.60
2022-10-07T06:16:20.416Z,13.74
2022-10-07T06:18:50.527Z,13.78
2022-10-07T06:21:19.529Z,13.79
2022-10-07T06:23:53.032Z,13.82
2022-10-07T06:26:23.761Z,13.87
2022-10-07T06:28:51.094Z,13.90
2022-10-07T06:31:25.818Z,13.84
2022-10-07T06:33:57.759Z,13.94
2022-10-07T06:36:24.395Z,13.96
2022-10-07T06:38:55.428Z,14.01
2022-10-07T06:41:26.967Z,13.98
2022-10-07T06:44:05.579Z,14.12
2022-10-07T06:46:33.857Z,14.15
2022-10-07T06:49:00.581Z,14.22
2022-10-07T06:51:27.154Z,14.28
2022-10-07T06:53:57.891Z,14.36
2022-10-07T06:56:25.870Z,14.46
2022-10-07T06:58:52.600Z,14.56
2022-10-07T07:01:29.148Z,14.61
2022-10-07T07:03:56.451Z,14.67
2022-10-07T07:06:23.912Z,14.75
2022-10-07T07:08:51.220Z,14.88
2022-10-07T07:11:37.693Z,15.71
2022-10-07T07:14:12.601Z,16.40
2022-10-07T07:16:42.222Z,16.62
2022-10-07T07:19:12.147Z,16.64
2022-10-07T07:21:40.988Z,16.71
2022-10-07T07:24:10.509Z,16.90
2022-10-07T07:26:39.439Z,16.90
2022-10-07T07:29:08.130Z,17.22
2022-10-07T07:31:42.958Z,17.45
2022-10-07T07:34:12.372Z,17.76
2022-10-07T07:36:44.738Z,18.00
2022-10-07T07:39:14.291Z,18.11
2022-10-07T07:41:46.675Z,18.29
2022-10-07T07:44:15.978Z,18.14
2022-10-07T07:46:47.638Z,18.44
2022-10-07T07:49:15.738Z,18.66
2022-10-07T07:51:44.332Z,18.96
2022-10-07T07:54:15.994Z,19.15
2022-10-07T07:56:45.234Z,19.23
2022-10-07T07:59:11.991Z,19.33
2022-10-07T08:01:39.454Z,19.20
2022-10-07T08:04:07.021Z,19.70
2022-10-07T08:06:34.748Z,19.90
2022-10-07T08:09:03.763Z,20.11
2022-10-07T08:11:35.499Z,20.18
2022-10-07T08:14:03.368Z,20.24
2022-10-07T08:16:32.854Z,20.06
2022-10-07T08:19:00.621Z,20.45
2022-10-07T08:21:32.849Z,20.55
2022-10-07T08:24:02.758Z,20.62
2022-10-07T08:26:34.728Z,20.76
2022-10-07T08:29:04.899Z,20.79
2022-10-07T08:31:32.420Z,20.85
2022-10-07T08:34:00.898Z,20.93
2022-10-07T08:36:29.451Z,20.95
2022-10-07T08:38:56.682Z,21.07
2022-10-07T08:41:39.270Z,21.04
2022-10-07T08:44:20.952Z,21.09
2022-10-07T08:47:09.848Z,21.17
2022-10-07T08:49:49.064Z,21.18
2022-10-07T08:52:44.539Z,21.39
2022-10-07T08:55:39.681Z,21.43
2022-10-07T08:58:57.893Z,21.45
2022-10-07T09:01:30.835Z,21.68
2022-10-07T09:04:33.730Z,21.55
2022-10-07T09:07:20.858Z,21.62
2022-10-07T09:09:55.277Z,21.32
2022-10-07T09:12:36.778Z,21.17
2022-10-07T09:15:06.842Z,21.12
2022-10-07T09:17:40.611Z,20.85
2022-10-07T09:20:17.513Z,21.04
2022-10-07T09:22:50.209Z,21.21
2022-10-07T09:25:30.509Z,21.11
2022-10-07T09:27:57.842Z,21.24
2022-10-07T09:30:27.894Z,21.31
2022-10-07T09:32:55.773Z,21.34
2022-10-07T09:35:25.632Z,21.36
2022-10-07T09:38:09.130Z,21.44
2022-10-07T09:41:02.775Z,21.19
2022-10-07T09:43:31.620Z,21.33
2022-10-07T09:46:00.640Z,21.43
2022-10-07T09:48:34.258Z,21.57
2022-10-07T09:51:18.241Z,21.67
2022-10-07T09:54:03.025Z,21.64
2022-10-07T09:56:34.568Z,21.72
2022-10-07T09:59:23.104Z,21.59
2022-10-07T10:01:59.145Z,21.45
2022-10-07T10:04:33.476Z,21.64
2022-10-07T10:07:04.611Z,21.64
2022-10-07T10:09:32.870Z,21.59
2022-10-07T10:12:11.054Z,21.52
2022-10-07T10:14:48.168Z,21.43
2022-10-07T10:17:40.484Z,21.19
2022-10-07T10:20:36.341Z,20.96
2022-10-07T10:23:27.929Z,20.65
2022-10-07T10:26:32.514Z,20.43
2022-10-07T10:29:21.432Z,20.51
2022-10-07T10:32:07.380Z,20.68
2022-10-07T10:35:06.276Z,20.99
2022-10-07T10:37:41.698Z,21.36
2022-10-07T10:40:14.165Z,21.54
2022-10-07T10:42:53.103Z,21.62
2022-10-07T10:45:37.471Z,21.84
2022-10-07T10:48:34.684Z,21.80
2022-10-07T10:51:31.636Z,21.88
2022-10-07T10:54:24.023Z,21.94
2022-10-07T10:57:12.005Z,22.09
2022-10-07T10:59:50.633Z,22.20
2022-10-07T11:02:32.648Z,22.28
2022-10-07T11:05:08.805Z,22.35
2022-10-07T11:07:39.501Z,22.42
2022-10-07T11:10:21.311Z,22.51
2022-10-07T11:12:54.843Z,22.58
2022-10-07T11:15:28.743Z,22.84
2022-10-07T11:18:01.265Z,22.93
2022-10-07T11:20:33.540Z,23.07
2022-10-07T11:23:25.005Z,23.15
2022-10-07T11:25:59.790Z,23.36
2022-10-07T11:28:27.859Z,23.43
2022-10-07T11:31:15.066Z,23.38
2022-10-07T11:33:50.530Z,23.43
2022-10-07T11:36:46.583Z,23.53
2022-10-07T11:39:13.057Z,23.64
2022-10-07T11:42:17.426Z,23.29
2022-10-07T11:45:03.243Z,23.40
2022-10-07T11:47:53.157Z,23.44
2022-10-07T11:50:27.739Z,23.54
2022-10-07T11:53:01.377Z,23.73
2022-10-07T11:55:35.138Z,23.78
2022-10-07T11:58:04.153Z,23.97
2022-10-07T12:00:39.447Z,24.01
2022-10-07T12:03:18.282Z,24.13
2022-10-07T12:05:50.646Z,24.24
2022-10-07T12:08:37.470Z,24.00
2022-10-07T12:11:13.247Z,24.16
2022-10-07T12:13:42.754Z,24.29
2022-10-07T12:16:24.580Z,24.13
2022-10-07T12:19:06.361Z,24.13
2022-10-07T12:22:02.961Z,24.11
2022-10-07T12:24:31.637Z,24.21
2022-10-07T12:27:21.609Z,23.99
2022-10-07T12:29:50.939Z,24.19
2022-10-07T12:32:41.370Z,24.29
2022-10-07T12:35:29.786Z,24.20
2022-10-07T12:38:04.904Z,23.69
2022-10-07T12:40:34.898Z,23.85
2022-10-07T12:43:13.935Z,23.77
2022-10-07T12:45:43.335Z,23.89
2022-10-07T12:48:18.211Z,23.80
2022-10-07T12:50:47.194Z,23.66
2022-10-07T12:53:14.041Z,23.35
2022-10-07T12:55:50.244Z,23.15
2022-10-07T12:58:41.588Z,23.01
2022-10-07T13:01:29.725Z,22.93
2022-10-07T13:04:33.617Z,22.79
2022-10-07T13:07:18.795Z,22.54
2022-10-07T13:10:03.548Z,22.28
2022-10-07T13:12:42.517Z,22.11
2022-10-07T13:15:31.458Z,21.99
2022-10-07T13:18:12.785Z,21.77
2022-10-07T13:20:57.776Z,21.61
2022-10-07T13:23:27.635Z,21.52
2022-10-07T13:25:57.636Z,21.45
2022-10-07T13:28:30.933Z,21.43
2022-10-07T13:31:11.394Z,21.35
2022-10-07T13:33:38.112Z,21.44
2022-10-07T13:36:16.779Z,21.45
2022-10-07T13:38:46.290Z,21.52
2022-10-07T13:41:27.546Z,21.49
2022-10-07T13:44:02.106Z,21.51
2022-10-07T13:46:31.200Z,21.58
2022-10-07T13:48:59.195Z,21.68
2022-10-07T13:51:39.967Z,21.69
2022-10-07T13:54:18.393Z,21.86
2022-10-07T13:56:45.800Z,21.94
2022-10-07T13:59:17.918Z,21.92
2022-10-07T14:01:50.544Z,21.95
2022-10-07T14:04:27.469Z,22.00
2022-10-07T14:06:56.176Z,22.04
2022-10-07T14:09:31.634Z,21.99
2022-10-07T14:12:04.019Z,22.05
2022-10-07T14:14:35.473Z,22.01
2022-10-07T14:17:08.381Z,21.94
2022-10-07T14:19:35.147Z,21.74
2022-10-07T14:22:04.424Z,21.74
2022-10-07T14:24:31.538Z,21.64
2022-10-07T14:26:58.188Z,21.46
2022-10-07T14:29:27.503Z,21.29
2022-10-07T14:32:47.706Z,21.12
2022-10-07T14:35:23.908Z,20.98
2022-10-07T14:37:50.482Z,20.93
2022-10-07T14:40:19.416Z,20.86
2022-10-07T14:42:46.745Z,20.77
2022-10-07T14:45:17.983Z,20.69
2022-10-07T14:47:45.337Z,20.67
2022-10-07T14:50:13.408Z,20.65
2022-10-07T14:52:46.189Z,20.54
2022-10-07T14:55:16.139Z,20.47
2022-10-07T14:57:43.143Z,20.42
2022-10-07T15:00:18.311Z,20.36
2022-10-07T15:02:45.243Z,20.35
2022-10-07T15:05:16.017Z,20.38
2022-10-07T15:07:42.687Z,20.37
2022-10-07T15:10:20.898Z,20.23
2022-10-07T15:12:48.094Z,20.09
2022-10-07T15:15:15.661Z,19.98
2022-10-07T15:17:43.021Z,19.86
2022-10-07T15:20:11.948Z,19.77
2022-10-07T15:22:38.542Z,19.61
2022-10-07T15:25:09.346Z,19.57
2022-10-07T15:27:36.461Z,19.47
2022-10-07T15:30:03.362Z,19.37
2022-10-07T15:32:30.196Z,19.26
2022-10-07T15:34:57.807Z,19.08
2022-10-07T15:37:27.693Z,19.15
2022-10-07T15:39:54.725Z,19.07
2022-10-07T15:42:23.744Z,18.96
2022-10-07T15:44:50.378Z,18.97
2022-10-07T15:47:17.392Z,18.90
2022-10-07T15:49:44.176Z,18.80
2022-10-07T15:52:11.644Z,18.77
2022-10-07T15:54:38.935Z,18.70
2022-10-07T15:57:05.734Z,18.68
2022-10-07T15:59:32.269Z,18.65
2022-10-07T16:01:58.920Z,18.62
2022-10-07T16:04:25.694Z,18.55
2022-10-07T16:06:52.557Z,18.49
2022-10-07T16:09:20.608Z,18.37
2022-10-07T16:11:47.921Z,18.37
2022-10-07T16:14:14.879Z,18.34
2022-10-07T16:16:42.605Z,18.27
2022-10-07T16:19:10.042Z,18.21
2022-10-07T16:21:39.214Z,18.14
2022-10-07T16:24:18.151Z,18.07
2022-10-07T16:26:46.827Z,18.01
2022-10-07T16:29:34.555Z,17.96
2022-10-07T16:32:01.499Z,17.88
2022-10-07T16:34:28.703Z,17.88
2022-10-07T16:36:57.351Z,17.83
2022-10-07T16:39:24.431Z,17.75
2022-10-07T16:41:52.352Z,17.66
2022-10-07T16:44:19.748Z,17.61
2022-10-07T16:46:46.971Z,17.57
2022-10-07T16:49:17.940Z,17.49
2022-10-07T16:51:46.035Z,17.42
2022-10-07T16:54:16.017Z,17.35
2022-10-07T16:56:49.133Z,17.20
2022-10-07T16:59:23.190Z,17.23
2022-10-07T17:01:55.662Z,16.97
2022-10-07T17:04:24.399Z,16.99
2022-10-07T17:06:50.932Z,17.04
2022-10-07T17:09:18.381Z,16.94
2022-10-07T17:11:45.912Z,16.93
2022-10-07T17:14:18.736Z,16.87
2022-10-07T17:16:51.170Z,16.78
2022-10-07T17:19:19.938Z,16.76
2022-10-07T17:21:48.499Z,16.69
2022-10-07T17:24:20.152Z,16.53
2022-10-07T17:26:47.154Z,16.47
2022-10-07T17:29:18.251Z,16.51
2022-10-07T17:31:48.218Z,16.46
2022-10-07T17:34:16.122Z,16.39
2022-10-07T17:36:43.860Z,16.36
2022-10-07T17:39:10.561Z,16.33
2022-10-07T17:41:38.363Z,16.31
2022-10-07T17:44:09.384Z,16.28
2022-10-07T17:46:38.014Z,16.22
2022-10-07T17:49:06.610Z,16.14
2022-10-07T17:51:34.670Z,16.09
2022-10-07T17:54:02.422Z,16.06
2022-10-07T17:56:31.903Z,16.04
2022-10-07T17:58:58.932Z,16.01
2022-10-07T18:01:27.962Z,16.00
2022-10-07T18:03:57.502Z,15.98
2022-10-07T18:06:29.226Z,15.85
2022-10-07T18:08:58.876Z,15.90
2022-10-07T18:11:46.438Z,15.77
2022-10-07T18:14:32.106Z,15.78
2022-10-07T18:16:59.016Z,15.68
2022-10-07T18:19:26.661Z,15.62
2022-10-07T18:21:56.184Z,15.67
2022-10-07T18:24:28.665Z,15.73
2022-10-07T18:26:58.858Z,15.75
2022-10-07T18:29:34.322Z,15.75
2022-10-07T18:32:01.092Z,15.73
2022-10-07T18:34:27.696Z,15.75
2022-10-07T18:36:57.016Z,15.76
2022-10-07T18:39:28.077Z,15.78
2022-10-07T18:41:55.077Z,15.79
2022-10-07T18:44:21.933Z,15.86
2022-10-07T18:46:48.628Z,15.85
2022-10-07T18:49:16.378Z,15.86
2022-10-07T18:51:43.298Z,15.86
2022-10-07T18:54:10.680Z,15.87
2022-10-07T18:56:41.007Z,15.86
2022-10-07T18:59:09.557Z,15.82
2022-10-07T19:01:37.394Z,15.79
2022-10-07T19:04:06.010Z,15.76
2022-10-07T19:06:35.140Z,15.69
2022-10-07T19:09:06.098Z,15.66
2022-10-07T19:11:33.416Z,15.61
2022-10-07T19:14:01.256Z,15.54
2022-10-07T19:16:34.954Z,15.51
2022-10-07T19:19:07.506Z,15.44
2022-10-07T19:21:35.847Z,15.38
2022-10-07T19:24:03.753Z,15.31
2022-10-07T19:26:35.965Z,15.26
2022-10-07T19:29:03.870Z,15.22
2022-10-07T19:31:32.784Z,15.16
2022-10-07T19:34:02.253Z,15.13
2022-10-07T19:36:34.281Z,15.13
2022-10-07T19:39:01.846Z,15.10
2022-10-07T19:41:31.314Z,15.08
2022-10-07T19:43:58.621Z,14.96
2022-10-07T19:46:27.549Z,14.96
2022-10-07T19:48:59.624Z,14.90
2022-10-07T19:51:28.532Z,14.85
2022-10-07T19:53:57.319Z,14.81
2022-10-07T19:56:29.330Z,14.68
2022-10-07T19:58:58.662Z,14.71
2022-10-07T20:01:28.263Z,14.55
2022-10-07T20:04:03.823Z,14.58
2022-10-07T20:06:31.221Z,14.54
2022-10-07T20:08:58.382Z,14.48
2022-10-07T20:11:25.728Z,14.44
2022-10-07T20:13:54.237Z,14.40
2022-10-07T20:16:26.790Z,14.33
2022-10-07T20:19:08.052Z,14.37
2022-10-07T20:21:36.768Z,14.34
2022-10-07T20:24:04.327Z,14.30
2022-10-07T20:26:33.186Z,14.28
2022-10-07T20:29:01.425Z,14.25
2022-10-07T20:31:30.383Z,14.20
2022-10-07T20:33:59.078Z,14.14
2022-10-07T20:36:28.707Z,14.11
2022-10-07T20:39:15.495Z,14.05
2022-10-07T20:42:06.390Z,13.97
2022-10-07T20:44:33.123Z,13.92
2022-10-07T20:46:59.781Z,13.86
2022-10-07T20:49:28.628Z,13.82
2022-10-07T20:51:57.444Z,13.73
2022-10-07T20:54:25.428Z,13.74
2022-10-07T20:56:59.502Z,13.73
2022-10-07T20:59:30.059Z,13.72
2022-10-07T21:01:57.630Z,13.73
2022-10-07T21:04:28.663Z,13.69
2022-10-07T21:06:56.741Z,13.74
2022-10-07T21:09:24.773Z,13.75
2022-10-07T21:11:51.784Z,13.74
2022-10-07T21:14:18.378Z,13.73
2022-10-07T21:16:46.608Z,13.67
2022-10-07T21:19:14.393Z,13.67
2022-10-07T21:21:41.382Z,13.63
2022-10-07T21:24:08.253Z,13.59
2022-10-07T21:26:36.441Z,13.54
2022-10-07T21:29:04.224Z,13.53
2022-10-07T21:31:31.431Z,13.45
2022-10-07T21:34:01.598Z,13.45
2022-10-07T21:36:28.243Z,13.43
2022-10-07T21:38:58.674Z,13.38
2022-10-07T21:41:27.632Z,13.33
2022-10-07T21:43:55.857Z,13.30
2022-10-07T21:46:24.561Z,13.29
2022-10-07T21:48:54.236Z,13.27
2022-10-07T21:51:22.191Z,13.16
2022-10-07T21:53:53.084Z,13.24
2022-10-07T21:56:20.582Z,13.21
2022-10-07T21:58:49.368Z,13.19
2022-10-07T22:01:18.004Z,13.15
2022-10-07T22:03:46.090Z,13.14
2022-10-07T22:06:16.056Z,13.11
2022-10-07T22:08:45.838Z,13.10
2022-10-07T22:11:17.976Z,13.07
2022-10-07T22:13:53.069Z,13.03
2022-10-07T22:16:20.105Z,12.96
2022-10-07T22:18:52.141Z,12.98
2022-10-07T22:21:24.146Z,12.99
2022-10-07T22:23:53.130Z,12.99
2022-10-07T22:26:22.333Z,12.97
2022-10-07T22:28:49.716Z,12.97
2022-10-07T22:31:17.020Z,12.94
2022-10-07T22:33:44.757Z,12.94
2022-10-07T22:36:13.246Z,12.92
2022-10-07T22:38:40.905Z,12.88
2022-10-07T22:41:10.263Z,12.85
2022-10-07T22:43:44.462Z,12.72
2022-10-07T22:46:13.362Z,12.78
2022-10-07T22:48:43.055Z,12.73
2022-10-07T22:51:12.291Z,12.66
2022-10-07T22:53:42.961Z,12.60
2022-10-07T22:56:13.914Z,12.61
2022-10-07T22:58:42.364Z,12.60
2022-10-07T23:01:12.097Z,12.55
2022-10-07T23:03:40.245Z,12.57
2022-10-07T23:06:07.287Z,12.58
2022-10-07T23:08:34.895Z,12.58
2022-10-07T23:11:03.289Z,12.58
2022-10-07T23:13:33.170Z,12.58
2022-10-07T23:16:02.272Z,12.53
2022-10-07T23:18:29.706Z,12.53
2022-10-07T23:21:08.221Z,12.51
2022-10-07T23:23:36.458Z,12.53
2022-10-07T23:26:05.394Z,12.53
2022-10-07T23:28:34.537Z,12.51
2022-10-07T23:31:09.471Z,12.44
2022-10-07T23:33:37.283Z,12.38
2022-10-07T23:36:06.163Z,12.35
2022-10-07T23:38:33.565Z,12.34
2022-10-07T23:41:01.374Z,12.31
2022-10-07T23:43:33.388Z,12.34
2022-10-07T23:46:01.446Z,12.33
2022-10-07T23:48:28.435Z,12.32
2022-10-07T23:50:55.292Z,12.31
2022-10-07T23:53:22.555Z,12.31
2022-10-07T23:55:51.603Z,12.29
2022-10-07T23:58:21.078Z,12.28
